Observation data for Silverton on 02/13/2018      Previous  Date  Next       Current Mesonet Observations  Soil Data  Daily Summary Page  Observations in Plain Language
KSVS 130600Z 11007KT M03/M11 A3029 RMK A01 T10281110  RH  054%=      5-min Rain = 0
KSVS 130605Z 11008KT M03/M11 A3029 RMK A01 T10281109  RH  055%=      5-min Rain = 0
KSVS 130610Z 11009KT M03/M11 A3028 RMK A01 T10301108  RH  056%=      5-min Rain = 0
KSVS 130615Z 11009KT M03/M11 A3028 RMK A01 T10291106  RH  056%=      5-min Rain = 0
KSVS 130620Z 11008KT M03/M11 A3028 RMK A01 T10291105  RH  057%=      5-min Rain = 0
KSVS 130625Z 11007KT M03/M11 A3028 RMK A01 T10311105  RH  057%=      5-min Rain = 0
KSVS 130630Z 11008KT M03/M11 A3028 RMK A01 T10331106  RH  058%=      5-min Rain = 0
KSVS 130635Z 10008KT M03/M11 A3028 RMK A01 T10331106  RH  058%=      5-min Rain = 0
KSVS 130640Z 11008KT M03/M11 A3028 RMK A01 T10331106  RH  058%=      5-min Rain = 0
KSVS 130645Z 11009KT M03/M11 A3028 RMK A01 T10341105  RH  059%=      5-min Rain = 0
KSVS 130650Z 11009KT M03/M10 A3028 RMK A01 T10331103  RH  059%=      5-min Rain = 0
KSVS 130655Z 11008KT M03/M10 A3028 RMK A01 T10331101  RH  060%=      5-min Rain = 0
KSVS 130700Z 11009KT M03/M10 A3027 RMK A01 T10341101  RH  060%=      5-min Rain = 0
KSVS 130705Z 11008KT M04/M10 A3027 RMK A01 T10361101  RH  062%=      5-min Rain = 0
KSVS 130710Z 11008KT M04/M10 A3027 RMK A01 T10381101  RH  063%=      5-min Rain = 0
KSVS 130715Z 11007KT M04/M10 A3028 RMK A01 T10401101  RH  063%=      5-min Rain = 0
KSVS 130720Z 11007KT M04/M10 A3028 RMK A01 T10431103  RH  064%=      5-min Rain = 0
KSVS 130725Z 11007KT M05/M10 A3027 RMK A01 T10461104  RH  065%=      5-min Rain = 0
KSVS 130730Z 12007KT M05/M11 A3027 RMK A01 T10501105  RH  066%=      5-min Rain = 0
KSVS 130735Z 12006KT M05/M11 A3028 RMK A01 T10531106  RH  067%=      5-min Rain = 0
KSVS 130740Z 11007KT M06/M11 A3027 RMK A01 T10561108  RH  067%=      5-min Rain = 0
KSVS 130745Z 11007KT M06/M11 A3028 RMK A01 T10581109  RH  068%=      5-min Rain = 0
KSVS 130750Z 12007KT M06/M11 A3027 RMK A01 T10581107  RH  069%=      5-min Rain = 0
KSVS 130755Z 12007KT M06/M11 A3027 RMK A01 T10611110  RH  069%=      5-min Rain = 0
KSVS 130800Z 11006KT M06/M11 A3028 RMK A01 T10611108  RH  070%=      5-min Rain = 0
KSVS 130805Z 10006KT M06/M11 A3028 RMK A01 T10571106  RH  069%=      5-min Rain = 0
KSVS 130810Z 10007KT M06/M11 A3027 RMK A01 T10591110  RH  068%=      5-min Rain = 0
KSVS 130815Z 10008KT M06/M11 A3027 RMK A01 T10591109  RH  069%=      5-min Rain = 0
KSVS 130820Z 10007KT M06/M11 A3027 RMK A01 T10571108  RH  068%=      5-min Rain = 0
KSVS 130825Z 10007KT M06/M11 A3027 RMK A01 T10581109  RH  068%=      5-min Rain = 0
KSVS 130830Z 11008KT M06/M11 A3027 RMK A01 T10591108  RH  069%=      5-min Rain = 0
KSVS 130835Z 12008KT M06/M10 A3027 RMK A01 T10561104  RH  070%=      5-min Rain = 0
KSVS 130840Z 12008KT M06/M11 A3027 RMK A01 T10611108  RH  070%=      5-min Rain = 0
KSVS 130845Z 12008KT M06/M11 A3026 RMK A01 T10631108  RH  071%=      5-min Rain = 0
KSVS 130850Z 13008KT M07/M11 A3026 RMK A01 T10661111  RH  072%=      5-min Rain = 0
KSVS 130855Z 13006KT M07/M11 A3026 RMK A01 T10691111  RH  073%=      5-min Rain = 0
KSVS 130900Z 12005KT M07/M11 A3026 RMK A01 T10691109  RH  074%=      5-min Rain = 0
KSVS 130905Z 12005KT M06/M11 A3026 RMK A01 T10641106  RH  073%=      5-min Rain = 0
KSVS 130910Z 10005KT M06/M11 A3027 RMK A01 T10641109  RH  072%=      5-min Rain = 0
KSVS 130915Z 09005KT M07/M11 A3026 RMK A01 T10671112  RH  071%=      5-min Rain = 0
KSVS 130920Z 09006KT M07/M11 A3026 RMK A01 T10691113  RH  072%=      5-min Rain = 0
KSVS 130925Z 10006KT M07/M11 A3026 RMK A01 T10661108  RH  073%=      5-min Rain = 0
KSVS 130930Z 10005KT M06/M11 A3026 RMK A01 T10631105  RH  073%=      5-min Rain = 0
KSVS 130935Z 11006KT M06/M11 A3026 RMK A01 T10621105  RH  073%=      5-min Rain = 0
KSVS 130940Z 12007KT M07/M11 A3026 RMK A01 T10651107  RH  073%=      5-min Rain = 0
KSVS 130945Z 12006KT M07/M11 A3026 RMK A01 T10671106  RH  075%=      5-min Rain = 0
KSVS 130950Z 12005KT M07/M11 A3026 RMK A01 T10691106  RH  076%=      5-min Rain = 0
KSVS 130955Z 12004KT M07/M10 A3026 RMK A01 T10671103  RH  077%=      5-min Rain = 0
KSVS 131000Z 12003KT M07/M10 A3027 RMK A01 T10661102  RH  077%=      5-min Rain = 0
KSVS 131005Z 12002KT M07/M10 A3027 RMK A01 T10671103  RH  076%=      5-min Rain = 0
KSVS 131010Z 11002KT M07/M10 A3027 RMK A01 T10681104  RH  076%=      5-min Rain = 0
KSVS 131015Z 13003KT M07/M11 A3027 RMK A01 T10691106  RH  076%=      5-min Rain = 0
KSVS 131020Z 14002KT M08/M11 A3027 RMK A01 T10761113  RH  076%=      5-min Rain = 0
KSVS 131025Z 12002KT M08/M11 A3027 RMK A01 T10781111  RH  078%=      5-min Rain = 0
KSVS 131030Z 15002KT M07/M10 A3028 RMK A01 T10731103  RH  080%=      5-min Rain = 0
KSVS 131035Z 16002KT M07/M10 A3028 RMK A01 T10721102  RH  080%=      5-min Rain = 0
KSVS 131040Z 15003KT M07/M10 A3028 RMK A01 T10661095  RH  081%=      5-min Rain = 0
KSVS 131045Z 14003KT M07/M10 A3028 RMK A01 T10701102  RH  079%=      5-min Rain = 0
KSVS 131050Z 16002KT M08/M12 A3028 RMK A01 T10801116  RH  076%=      5-min Rain = 0
KSVS 131055Z 17002KT M09/M12 A3028 RMK A01 T10871122  RH  077%=      5-min Rain = 0
KSVS 131100Z 16003KT M08/M11 A3028 RMK A01 T10781107  RH  081%=      5-min Rain = 0
KSVS 131105Z 16003KT M07/M10 A3028 RMK A01 T10711100  RH  081%=      5-min Rain = 0
KSVS 131110Z 16003KT M07/M10 A3027 RMK A01 T10731103  RH  080%=      5-min Rain = 0
KSVS 131115Z 14003KT M07/M10 A3027 RMK A01 T10721103  RH  080%=      5-min Rain = 0
KSVS 131120Z 14004KT M07/M09 A3028 RMK A01 T10651092  RH  082%=      5-min Rain = 0
KSVS 131125Z 13005KT M06/M09 A3028 RMK A01 T10591089  RH  081%=      5-min Rain = 0
KSVS 131130Z 12005KT M06/M09 A3027 RMK A01 T10601092  RH  080%=      5-min Rain = 0
KSVS 131135Z 10005KT M06/M10 A3027 RMK A01 T10641098  RH  078%=      5-min Rain = 0
KSVS 131140Z 10005KT M06/M10 A3028 RMK A01 T10641097  RH  078%=      5-min Rain = 0
KSVS 131145Z 10006KT M07/M10 A3028 RMK A01 T10651099  RH  078%=      5-min Rain = 0
KSVS 131150Z 10006KT M06/M10 A3028 RMK A01 T10621095  RH  079%=      5-min Rain = 0
KSVS 131155Z 10006KT M06/M09 A3028 RMK A01 T10601092  RH  079%=      5-min Rain = 0
KSVS 131200Z 10005KT M06/M09 A3028 RMK A01 T10571089  RH  079%=      5-min Rain = 0
KSVS 131205Z 11005KT M06/M09 A3029 RMK A01 T10551088  RH  079%=      5-min Rain = 0
KSVS 131210Z 12005KT M05/M09 A3029 RMK A01 T10541086  RH  079%=      5-min Rain = 0
KSVS 131215Z 12006KT M05/M09 A3028 RMK A01 T10541085  RH  079%=      5-min Rain = 0
KSVS 131220Z 13006KT M06/M09 A3028 RMK A01 T10571089  RH  079%=      5-min Rain = 0
KSVS 131225Z 14006KT M06/M09 A3029 RMK A01 T10581089  RH  080%=      5-min Rain = 0
KSVS 131230Z 14006KT M06/M09 A3029 RMK A01 T10601091  RH  080%=      5-min Rain = 0
KSVS 131235Z 14007KT M06/M09 A3029 RMK A01 T10631093  RH  080%=      5-min Rain = 0
KSVS 131240Z 14008KT M06/M09 A3029 RMK A01 T10621091  RH  081%=      5-min Rain = 0
KSVS 131245Z 14008KT M06/M09 A3029 RMK A01 T10581087  RH  081%=      5-min Rain = 0
KSVS 131250Z 14008KT M06/M08 A3028 RMK A01 T10561084  RH  082%=      5-min Rain = 0
KSVS 131255Z 14007KT M05/M08 A3028 RMK A01 T10521079  RH  082%=      5-min Rain = 0
KSVS 131300Z 15008KT M05/M08 A3028 RMK A01 T10501079  RH  082%=      5-min Rain = 0
KSVS 131305Z 15007KT M05/M08 A3029 RMK A01 T10501078  RH  081%=      5-min Rain = 0
KSVS 131310Z 15006KT M05/M08 A3029 RMK A01 T10491078  RH  081%=      5-min Rain = 0
KSVS 131315Z 15005KT M05/M08 A3029 RMK A01 T10501078  RH  081%=      5-min Rain = 0
KSVS 131320Z 15005KT M05/M08 A3029 RMK A01 T10491077  RH  082%=      5-min Rain = 0
KSVS 131325Z 14005KT M05/M08 A3029 RMK A01 T10481076  RH  082%=      5-min Rain = 0
KSVS 131330Z 14005KT M05/M08 A303 RMK A01 T10481077  RH  081%=      5-min Rain = 0
KSVS 131335Z 15005KT M05/M08 A303 RMK A01 T10491078  RH  081%=      5-min Rain = 0
KSVS 131340Z 15004KT M05/M08 A303 RMK A01 T10501079  RH  081%=      5-min Rain = 0
KSVS 131345Z 14004KT M05/M08 A303 RMK A01 T10491078  RH  081%=      5-min Rain = 0
KSVS 131350Z 14005KT M05/M08 A303 RMK A01 T10471076  RH  082%=      5-min Rain = 0
KSVS 131355Z 14006KT M05/M08 A303 RMK A01 T10471076  RH  081%=      5-min Rain = 0
KSVS 131400Z 15006KT M04/M07 A303 RMK A01 T10441072  RH  081%=      5-min Rain = 0
KSVS 131405Z 15006KT M04/M07 A303 RMK A01 T10391068  RH  081%=      5-min Rain = 0
KSVS 131410Z 15006KT M03/M06 A303 RMK A01 T10341063  RH  081%=      5-min Rain = 0
KSVS 131415Z 14006KT M03/M06 A303 RMK A01 T10291059  RH  081%=      5-min Rain = 0
KSVS 131420Z 14005KT M03/M06 A303 RMK A01 T10271059  RH  079%=      5-min Rain = 0
KSVS 131425Z 13004KT M02/M06 A3031 RMK A01 T10241058  RH  079%=      5-min Rain = 0
KSVS 131430Z 13004KT M02/M05 A3031 RMK A01 T10201054  RH  078%=      5-min Rain = 0
KSVS 131435Z 13005KT M01/M05 A3031 RMK A01 T10141049  RH  078%=      5-min Rain = 0
KSVS 131440Z 14005KT M01/M05 A3031 RMK A01 T10091046  RH  077%=      5-min Rain = 0
KSVS 131445Z 15006KT M01/M05 A3032 RMK A01 T10061045  RH  076%=      5-min Rain = 0
KSVS 131450Z 16006KT M00/M04 A3032 RMK A01 T10031044  RH  075%=      5-min Rain = 0
KSVS 131455Z 16006KT 00/M04 A3032 RMK A01 T00011043  RH  073%=      5-min Rain = 0
KSVS 131500Z 15006KT 00/M04 A3032 RMK A01 T00031043  RH  072%=      5-min Rain = 0
KSVS 131505Z 15005KT 01/M04 A3032 RMK A01 T00061042  RH  071%=      5-min Rain = 0
KSVS 131510Z 14005KT 01/M04 A3032 RMK A01 T00081043  RH  070%=      5-min Rain = 0
KSVS 131515Z 13005KT 01/M04 A3032 RMK A01 T00091043  RH  069%=      5-min Rain = 0
KSVS 131520Z 14004KT 01/M04 A3032 RMK A01 T00091043  RH  069%=      5-min Rain = 0
KSVS 131525Z 15005KT 01/M04 A3032 RMK A01 T00101044  RH  068%=      5-min Rain = 0
KSVS 131530Z 15005KT 01/M04 A3032 RMK A01 T00121044  RH  067%=      5-min Rain = 0
KSVS 131535Z 14006KT 01/M04 A3033 RMK A01 T00131044  RH  067%=      5-min Rain = 0
KSVS 131540Z 14005KT 02/M04 A3032 RMK A01 T00151044  RH  066%=      5-min Rain = 0
KSVS 131545Z 16005KT 02/M04 A3033 RMK A01 T00201041  RH  065%=      5-min Rain = 0
KSVS 131550Z 17007KT 02/M04 A3033 RMK A01 T00241041  RH  063%=      5-min Rain = 0
KSVS 131555Z 16008KT 03/M04 A3033 RMK A01 T00251041  RH  063%=      5-min Rain = 0
KSVS 131600Z 16007KT 03/M04 A3033 RMK A01 T00271040  RH  062%=      5-min Rain = 0
KSVS 131605Z 17006KT 03/M04 A3033 RMK A01 T00281040  RH  062%=      5-min Rain = 0
KSVS 131610Z 16006KT 03/M04 A3034 RMK A01 T00271041  RH  061%=      5-min Rain = 0
KSVS 131615Z 18006KT 03/M04 A3034 RMK A01 T00301040  RH  061%=      5-min Rain = 0
KSVS 131620Z 19005KT 03/M04 A3034 RMK A01 T00341040  RH  059%=      5-min Rain = 0
KSVS 131625Z 19008KT 03/M04 A3034 RMK A01 T00281041  RH  061%=      5-min Rain = 0
KSVS 131630Z 18007KT 03/M04 A3034 RMK A01 T00301039  RH  061%=      5-min Rain = 0
KSVS 131635Z 18007KT 04/M04 A3034 RMK A01 T00351039  RH  059%=      5-min Rain = 0
KSVS 131640Z 20008KT 04/M04 A3034 RMK A01 T00411037  RH  057%=      5-min Rain = 0
KSVS 131645Z 19007KT 04/M04 A3034 RMK A01 T00401038  RH  057%=      5-min Rain = 0
KSVS 131650Z 20009KT 04/M04 A3033 RMK A01 T00421035  RH  058%=      5-min Rain = 0
KSVS 131655Z 19010G15KT 06/M03 A3033 RMK A01 T00571028  RH  055%=      5-min Rain = 0
KSVS 131700Z 20014G19KT 07/M02 A3033 RMK A01 T00671019  RH  055%=      5-min Rain = 0
KSVS 131705Z 20014KT 07/M02 A3033 RMK A01 T00741017  RH  053%=      5-min Rain = 0
KSVS 131710Z 21012G17KT 08/M02 A3033 RMK A01 T00831017  RH  050%=      5-min Rain = 0
KSVS 131715Z 21013KT 08/M02 A3033 RMK A01 T00831017  RH  050%=      5-min Rain = 0
KSVS 131720Z 20012KT 08/M02 A3032 RMK A01 T00821017  RH  050%=      5-min Rain = 0
KSVS 131725Z 20012KT 08/M02 A3032 RMK A01 T00791017  RH  051%=      5-min Rain = 0
KSVS 131730Z 20011G16KT 08/M01 A3032 RMK A01 T00801014  RH  052%=      5-min Rain = 0
KSVS 131735Z 21010G15KT 08/M01 A3032 RMK A01 T00831014  RH  051%=      5-min Rain = 0
KSVS 131740Z 20009KT 08/M01 A3032 RMK A01 T00841013  RH  051%=      5-min Rain = 0
KSVS 131745Z 20009KT 09/M01 A3032 RMK A01 T00901012  RH  049%=      5-min Rain = 0
KSVS 131750Z 21009G14KT 09/M01 A3032 RMK A01 T00921012  RH  049%=      5-min Rain = 0
KSVS 131755Z 19009KT 09/M01 A3032 RMK A01 T00931011  RH  049%=      5-min Rain = 0
KSVS 131800Z 19007KT 10/M01 A3031 RMK A01 T00961011  RH  048%=      5-min Rain = 0
KSVS 131805Z 22009KT 10/M01 A3031 RMK A01 T00961013  RH  047%=      5-min Rain = 0
KSVS 131810Z 21009G16KT 10/M01 A3031 RMK A01 T01001010  RH  047%=      5-min Rain = 0
KSVS 131815Z 19008G13KT 10/M01 A3031 RMK A01 T00961010  RH  048%=      5-min Rain = 0
KSVS 131820Z 20010G16KT 10/M01 A303 RMK A01 T00991011  RH  047%=      5-min Rain = 0
KSVS 131825Z 21009G15KT 10/M01 A303 RMK A01 T00991011  RH  047%=      5-min Rain = 0
KSVS 131830Z 21009G14KT 10/M01 A3029 RMK A01 T01021011  RH  046%=      5-min Rain = 0
KSVS 131835Z 22010G15KT 10/M01 A3029 RMK A01 T01011014  RH  045%=      5-min Rain = 0
KSVS 131840Z 21008G13KT 11/M01 A3029 RMK A01 T01061012  RH  044%=      5-min Rain = 0
KSVS 131845Z 23008G13KT 11/M01 A3029 RMK A01 T01081014  RH  043%=      5-min Rain = 0
KSVS 131850Z 24009G15KT 11/M02 A3028 RMK A01 T01081015  RH  043%=      5-min Rain = 0
KSVS 131855Z 21011KT 11/M02 A3028 RMK A01 T01111015  RH  042%=      5-min Rain = 0
KSVS 131900Z 21010G15KT 11/M01 A3027 RMK A01 T01131014  RH  042%=      5-min Rain = 0
KSVS 131905Z 21008G14KT 12/M01 A3027 RMK A01 T01151014  RH  041%=      5-min Rain = 0
KSVS 131910Z 23010G15KT 12/M02 A3027 RMK A01 T01181015  RH  040%=      5-min Rain = 0
KSVS 131915Z 21009KT 12/M01 A3027 RMK A01 T01151014  RH  041%=      5-min Rain = 0
KSVS 131920Z 20009KT 12/M01 A3026 RMK A01 T01161013  RH  041%=      5-min Rain = 0
KSVS 131925Z 19008KT 12/M01 A3026 RMK A01 T01191014  RH  040%=      5-min Rain = 0
KSVS 131930Z 22009KT 12/M01 A3026 RMK A01 T01231014  RH  039%=      5-min Rain = 0
KSVS 131935Z 22009KT 12/M01 A3026 RMK A01 T01221013  RH  040%=      5-min Rain = 0
KSVS 131940Z 23011KT 12/M01 A3026 RMK A01 T01231012  RH  040%=      5-min Rain = 0
KSVS 131945Z 21008KT 12/M01 A3025 RMK A01 T01231012  RH  040%=      5-min Rain = 0
KSVS 131950Z 21008G13KT 13/M01 A3025 RMK A01 T01301011  RH  038%=      5-min Rain = 0
KSVS 131955Z 20009KT 13/M01 A3025 RMK A01 T01311011  RH  038%=      5-min Rain = 0
KSVS 132000Z 19009G14KT 13/M01 A3025 RMK A01 T01301011  RH  038%=      5-min Rain = 0
KSVS 132005Z 20009KT 13/M01 A3025 RMK A01 T01281012  RH  038%=      5-min Rain = 0
KSVS 132010Z 20009KT 13/M01 A3024 RMK A01 T01321012  RH  037%=      5-min Rain = 0
KSVS 132015Z 21010KT 14/M01 A3024 RMK A01 T01391012  RH  036%=      5-min Rain = 0
KSVS 132020Z 21012G17KT 14/M01 A3024 RMK A01 T01401014  RH  035%=      5-min Rain = 0
KSVS 132025Z 23010G15KT 14/M01 A3024 RMK A01 T01381012  RH  036%=      5-min Rain = 0
KSVS 132030Z 21009G14KT 14/M01 A3024 RMK A01 T01381011  RH  036%=      5-min Rain = 0
KSVS 132035Z 19008G13KT 14/M01 A3023 RMK A01 T01371009  RH  037%=      5-min Rain = 0
KSVS 132040Z 21009KT 14/M01 A3023 RMK A01 T01411006  RH  037%=      5-min Rain = 0
KSVS 132045Z 19010G16KT 15/M00 A3023 RMK A01 T01451004  RH  037%=      5-min Rain = 0
KSVS 132050Z 19011G16KT 14/M00 A3023 RMK A01 T01411002  RH  038%=      5-min Rain = 0
KSVS 132055Z 19010KT 14/M00 A3022 RMK A01 T01431002  RH  037%=      5-min Rain = 0
KSVS 132100Z 20008G13KT 15/M00 A3022 RMK A01 T01461001  RH  037%=      5-min Rain = 0
KSVS 132105Z 20010KT 15/00 A3022 RMK A01 T01490001  RH  037%=      5-min Rain = 0
KSVS 132110Z 19010G17KT 15/00 A3022 RMK A01 T01460003  RH  038%=      5-min Rain = 0
KSVS 132115Z 18010G15KT 15/01 A3022 RMK A01 T01510006  RH  038%=      5-min Rain = 0
KSVS 132120Z 19009G16KT 15/01 A3022 RMK A01 T01490006  RH  038%=      5-min Rain = 0
KSVS 132125Z 19010KT 15/01 A3022 RMK A01 T01500008  RH  038%=      5-min Rain = 0
KSVS 132130Z 20009KT 15/01 A3022 RMK A01 T01510009  RH  038%=      5-min Rain = 0
KSVS 132135Z 19010KT 15/01 A3022 RMK A01 T01530010  RH  038%=      5-min Rain = 0
KSVS 132140Z 19010G16KT 15/01 A3022 RMK A01 T01480008  RH  039%=      5-min Rain = 0
KSVS 132145Z 18009KT 15/01 A3022 RMK A01 T01500010  RH  039%=      5-min Rain = 0
KSVS 132150Z 20010KT 15/01 A3022 RMK A01 T01510010  RH  039%=      5-min Rain = 0
KSVS 132155Z 20009KT 16/01 A3022 RMK A01 T01550011  RH  038%=      5-min Rain = 0
KSVS 132200Z 18009KT 16/01 A3022 RMK A01 T01550010  RH  038%=      5-min Rain = 0
KSVS 132205Z 20010G15KT 15/01 A3022 RMK A01 T01540010  RH  038%=      5-min Rain = 0
KSVS 132210Z 18011G16KT 16/01 A3021 RMK A01 T01560011  RH  038%=      5-min Rain = 0
KSVS 132215Z 18012KT 15/01 A3021 RMK A01 T01540009  RH  038%=      5-min Rain = 0
KSVS 132220Z 20011KT 16/01 A3022 RMK A01 T01550009  RH  038%=      5-min Rain = 0
KSVS 132225Z 18012KT 15/01 A3022 RMK A01 T01540011  RH  038%=      5-min Rain = 0
KSVS 132230Z 18012G17KT 15/01 A3022 RMK A01 T01530011  RH  039%=      5-min Rain = 0
KSVS 132235Z 19011KT 15/01 A3021 RMK A01 T01470011  RH  040%=      5-min Rain = 0
KSVS 132240Z 18012G18KT 15/01 A3021 RMK A01 T01520011  RH  039%=      5-min Rain = 0
KSVS 132245Z 19012G17KT 15/01 A3022 RMK A01 T01490009  RH  039%=      5-min Rain = 0
KSVS 132250Z 19011KT 15/01 A3022 RMK A01 T01480007  RH  039%=      5-min Rain = 0
KSVS 132255Z 19010G15KT 15/01 A3022 RMK A01 T01490005  RH  038%=      5-min Rain = 0
KSVS 132300Z 20012KT 15/00 A3022 RMK A01 T01450004  RH  039%=      5-min Rain = 0
KSVS 132305Z 20010G15KT 14/00 A3022 RMK A01 T01430003  RH  039%=      5-min Rain = 0
KSVS 132310Z 19011KT 14/00 A3022 RMK A01 T01440002  RH  038%=      5-min Rain = 0
KSVS 132315Z 19011KT 14/00 A3022 RMK A01 T01420001  RH  038%=      5-min Rain = 0
KSVS 132320Z 19012KT 14/00 A3022 RMK A01 T01410001  RH  039%=      5-min Rain = 0
KSVS 132325Z 20011G16KT 14/00 A3022 RMK A01 T01410002  RH  039%=      5-min Rain = 0
KSVS 132330Z 20011KT 14/00 A3022 RMK A01 T01390003  RH  040%=      5-min Rain = 0
KSVS 132335Z 20009KT 14/00 A3022 RMK A01 T01380004  RH  040%=      5-min Rain = 0
KSVS 132340Z 19010KT 14/00 A3022 RMK A01 T01370004  RH  041%=      5-min Rain = 0
KSVS 132345Z 19009KT 14/00 A3022 RMK A01 T01350004  RH  041%=      5-min Rain = 0
KSVS 132350Z 18009KT 13/00 A3022 RMK A01 T01310002  RH  042%=      5-min Rain = 0
KSVS 132355Z 18009KT 13/00 A3021 RMK A01 T01260001  RH  043%=      5-min Rain = 0
KSVS 140000Z 18008KT 12/00 A3022 RMK A01 T01220001  RH  044%=      5-min Rain = 0
KSVS 140005Z 18008KT 12/00 A3022 RMK A01 T01160001  RH  045%=      5-min Rain = 0
KSVS 140010Z 18009KT 12/00 A3022 RMK A01 T01150002  RH  046%=      5-min Rain = 0
KSVS 140015Z 17009KT 11/00 A3022 RMK A01 T01100001  RH  047%=      5-min Rain = 0
KSVS 140020Z 17008KT 10/M00 A3022 RMK A01 T01041001  RH  048%=      5-min Rain = 0
KSVS 140025Z 17008KT 10/M00 A3022 RMK A01 T00991004  RH  049%=      5-min Rain = 0
KSVS 140030Z 18008KT 10/M00 A3022 RMK A01 T00961004  RH  050%=      5-min Rain = 0
KSVS 140035Z 17008KT 09/M01 A3022 RMK A01 T00921005  RH  051%=      5-min Rain = 0
KSVS 140040Z 17008KT 09/M01 A3022 RMK A01 T00901006  RH  052%=      5-min Rain = 0
KSVS 140045Z 18007KT 09/M01 A3023 RMK A01 T00891006  RH  052%=      5-min Rain = 0
KSVS 140050Z 18007KT 09/M01 A3023 RMK A01 T00861008  RH  052%=      5-min Rain = 0
KSVS 140055Z 18008KT 08/M01 A3023 RMK A01 T00821009  RH  054%=      5-min Rain = 0
KSVS 140100Z 18007KT 08/M01 A3023 RMK A01 T00801009  RH  054%=      5-min Rain = 0
KSVS 140105Z 18008KT 08/M01 A3023 RMK A01 T00771010  RH  055%=      5-min Rain = 0
KSVS 140110Z 18008KT 07/M01 A3023 RMK A01 T00711013  RH  056%=      5-min Rain = 0
KSVS 140115Z 18008KT 06/M01 A3023 RMK A01 T00641014  RH  058%=      5-min Rain = 0
KSVS 140120Z 18008KT 07/M01 A3023 RMK A01 T00671012  RH  058%=      5-min Rain = 0
KSVS 140125Z 18009KT 07/M01 A3023 RMK A01 T00721011  RH  056%=      5-min Rain = 0
KSVS 140130Z 18010KT 07/M01 A3023 RMK A01 T00691013  RH  057%=      5-min Rain = 0
KSVS 140135Z 18010KT 07/M01 A3023 RMK A01 T00661012  RH  058%=      5-min Rain = 0
KSVS 140140Z 18011KT 06/M01 A3023 RMK A01 T00611014  RH  059%=      5-min Rain = 0
KSVS 140145Z 18010KT 06/M01 A3023 RMK A01 T00571012  RH  062%=      5-min Rain = 0
KSVS 140150Z 18009KT 06/M01 A3024 RMK A01 T00601009  RH  062%=      5-min Rain = 0
KSVS 140155Z 17009KT 06/M01 A3024 RMK A01 T00621006  RH  062%=      5-min Rain = 0
KSVS 140200Z 17009KT 06/M01 A3024 RMK A01 T00611007  RH  062%=      5-min Rain = 0
KSVS 140205Z 17009KT 06/M01 A3024 RMK A01 T00601007  RH  063%=      5-min Rain = 0
KSVS 140210Z 18009KT 06/M01 A3024 RMK A01 T00601007  RH  063%=      5-min Rain = 0
KSVS 140215Z 18010KT 06/M01 A3024 RMK A01 T00581008  RH  063%=      5-min Rain = 0
KSVS 140220Z 18010KT 06/M01 A3024 RMK A01 T00551009  RH  064%=      5-min Rain = 0
KSVS 140225Z 18010KT 05/M01 A3024 RMK A01 T00541007  RH  065%=      5-min Rain = 0
KSVS 140230Z 18009KT 06/M01 A3024 RMK A01 T00601005  RH  064%=      5-min Rain = 0
KSVS 140235Z 18008KT 06/M00 A3024 RMK A01 T00601004  RH  064%=      5-min Rain = 0
KSVS 140240Z 18008KT 06/M00 A3024 RMK A01 T00621003  RH  064%=      5-min Rain = 0
KSVS 140245Z 18008KT 06/M00 A3024 RMK A01 T00631004  RH  063%=      5-min Rain = 0
KSVS 140250Z 18009KT 05/M01 A3024 RMK A01 T00491013  RH  065%=      5-min Rain = 0
KSVS 140255Z 17009KT 04/M01 A3024 RMK A01 T00411013  RH  069%=      5-min Rain = 0
KSVS 140300Z 17010KT 04/M01 A3024 RMK A01 T00431009  RH  070%=      5-min Rain = 0
KSVS 140305Z 17009KT 05/M01 A3024 RMK A01 T00461006  RH  070%=      5-min Rain = 0
KSVS 140310Z 17009KT 05/M00 A3024 RMK A01 T00491001  RH  071%=      5-min Rain = 0
KSVS 140315Z 17008KT 06/01 A3024 RMK A01 T00590005  RH  069%=      5-min Rain = 0
KSVS 140320Z 17009KT 06/00 A3024 RMK A01 T00590004  RH  069%=      5-min Rain = 0
KSVS 140325Z 17009KT 05/00 A3024 RMK A01 T00530000  RH  069%=      5-min Rain = 0
KSVS 140330Z 18008KT 05/M00 A3024 RMK A01 T00471002  RH  072%=      5-min Rain = 0
KSVS 140335Z 18009KT 04/M00 A3024 RMK A01 T00431002  RH  074%=      5-min Rain = 0
KSVS 140340Z 18009KT 05/01 A3024 RMK A01 T00480005  RH  075%=      5-min Rain = 0
KSVS 140345Z 18009KT 05/01 A3024 RMK A01 T00540009  RH  074%=      5-min Rain = 0
KSVS 140350Z 17009KT 06/01 A3024 RMK A01 T00560011  RH  073%=      5-min Rain = 0
KSVS 140355Z 17009KT 05/01 A3024 RMK A01 T00530008  RH  074%=      5-min Rain = 0
KSVS 140400Z 17010KT 05/01 A3024 RMK A01 T00520008  RH  074%=      5-min Rain = 0
KSVS 140405Z 18010KT 06/01 A3024 RMK A01 T00570013  RH  074%=      5-min Rain = 0
KSVS 140410Z 18009KT 06/02 A3024 RMK A01 T00600016  RH  074%=      5-min Rain = 0
KSVS 140415Z 18008KT 06/02 A3024 RMK A01 T00630017  RH  073%=      5-min Rain = 0
KSVS 140420Z 18007KT 06/02 A3024 RMK A01 T00640018  RH  073%=      5-min Rain = 0
KSVS 140425Z 18006KT 06/02 A3024 RMK A01 T00640017  RH  073%=      5-min Rain = 0
KSVS 140430Z 17007KT 06/02 A3024 RMK A01 T00610015  RH  074%=      5-min Rain = 0
KSVS 140435Z 18007KT 06/02 A3024 RMK A01 T00610016  RH  074%=      5-min Rain = 0
KSVS 140440Z 18008KT 06/02 A3024 RMK A01 T00610015  RH  073%=      5-min Rain = 0
KSVS 140445Z 19004KT 06/01 A3024 RMK A01 T00560013  RH  074%=      5-min Rain = 0
KSVS 140450Z 21002KT 05/01 A3023 RMK A01 T00470006  RH  075%=      5-min Rain = 0
KSVS 140455Z 22001KT 04/M00 A3023 RMK A01 T00351002  RH  077%=      5-min Rain = 0
KSVS 140500Z 19002KT 03/M00 A3023 RMK A01 T00341001  RH  079%=      5-min Rain = 0
KSVS 140505Z 19003KT 04/00 A3023 RMK A01 T00350000  RH  079%=      5-min Rain = 0
KSVS 140510Z 20004KT 03/M01 A3023 RMK A01 T00341005  RH  076%=      5-min Rain = 0
KSVS 140515Z 22004KT 03/M02 A3023 RMK A01 T00251016  RH  076%=      5-min Rain = 0
KSVS 140520Z 22003KT 02/M02 A3023 RMK A01 T00211015  RH  078%=      5-min Rain = 0
KSVS 140525Z 24002KT 02/M01 A3022 RMK A01 T00231014  RH  078%=      5-min Rain = 0
KSVS 140530Z 22003KT 02/M01 A3022 RMK A01 T00231013  RH  078%=      5-min Rain = 0
KSVS 140535Z 21003KT 03/M00 A3022 RMK A01 T00291004  RH  080%=      5-min Rain = 0
KSVS 140540Z 23003KT 03/M01 A3022 RMK A01 T00301007  RH  078%=      5-min Rain = 0
KSVS 140545Z 24004KT 03/M00 A3022 RMK A01 T00321002  RH  079%=      5-min Rain = 0
KSVS 140550Z 23006KT 03/M01 A3022 RMK A01 T00311006  RH  078%=      5-min Rain = 0
KSVS 140555Z 22007KT 03/M01 A3022 RMK A01 T00281009  RH  077%=      5-min Rain = 0

Page generated in 0.009 seconds.